Time;durP1;ratioP1;P1;durP2;ratioP2;P2;SDS_P1;SDS_P2;PMS_P1;PMS_P2;Temp;Humidity;BMP_temperature;BMP_pressure;BME280_temperature;BME280_humidity;BME280_pressure;Samples;Min_cycle;Max_cycle;Signal;HPM_P1;HPM_P2
2023/03/31 00:01:51;;;;;;;42.97;6.05;;;9.90;99.90;;;;;;5065564;28;20135;-66
2023/03/31 00:04:18;;;;;;;37.08;6.78;;;9.90;99.90;;;;;;5065678;28;20048;-67
2023/03/31 00:06:43;;;;;;;40.00;6.15;;;9.90;99.90;;;;;;5075211;28;20515;-66
2023/03/31 00:09:17;;;;;;;38.60;6.45;;;10.00;99.90;;;;;;5065159;28;20029;-64
2023/03/31 00:11:44;;;;;;;42.22;6.38;;;10.00;99.90;;;;;;5065659;28;20079;-64
2023/03/31 00:14:10;;;;;;;35.70;5.90;;;10.00;99.90;;;;;;5065355;28;20037;-64
2023/03/31 00:16:37;;;;;;;41.33;6.30;;;10.00;99.90;;;;;;5067805;28;20506;-64
2023/03/31 00:19:04;;;;;;;36.20;6.40;;;10.10;99.90;;;;;;5068229;28;20039;-65
2023/03/31 00:21:33;;;;;;;36.35;5.85;;;10.10;99.90;;;;;;5068056;28;20039;-63
2023/03/31 00:24:05;;;;;;;31.50;6.53;;;10.10;99.90;;;;;;5085163;28;20138;-64
2023/03/31 00:26:31;;;;;;;37.35;5.55;;;10.20;99.90;;;;;;5055220;28;20048;-64
2023/03/31 00:28:58;;;;;;;36.30;5.38;;;10.20;99.90;;;;;;5074906;28;20044;-64
2023/03/31 00:31:26;;;;;;;33.35;5.00;;;10.20;99.90;;;;;;5049492;28;20051;-65
2023/03/31 00:33:53;;;;;;;36.67;5.75;;;10.20;99.90;;;;;;5048537;28;20502;-65
2023/03/31 00:36:26;;;;;;;35.97;6.65;;;10.20;99.90;;;;;;5068797;28;20045;-64
2023/03/31 00:38:53;;;;;;;31.00;5.95;;;10.10;99.90;;;;;;5064899;28;20052;-66
2023/03/31 00:41:19;;;;;;;41.33;6.72;;;10.20;99.90;;;;;;5072537;28;20509;-65
2023/03/31 00:44:05;;;;;;;30.67;6.55;;;10.20;99.90;;;;;;5059690;28;20040;-64
2023/03/31 00:46:35;;;;;;;36.90;6.40;;;10.20;99.90;;;;;;5047616;28;20044;-64
2023/03/31 00:49:01;;;;;;;27.30;5.88;;;10.20;99.90;;;;;;5064788;28;20044;-64
2023/03/31 00:51:30;;;;;;;28.90;5.10;;;10.10;99.90;;;;;;5064729;28;20407;-65
2023/03/31 00:54:00;;;;;;;33.22;5.65;;;10.10;99.90;;;;;;5064890;28;20045;-65
2023/03/31 00:56:33;;;;;;;32.55;5.50;;;10.10;99.90;;;;;;5053887;28;20064;-65
2023/03/31 00:59:02;;;;;;;23.73;5.32;;;10.10;99.90;;;;;;5075684;28;20044;-65
2023/03/31 01:01:29;;;;;;;36.95;6.35;;;10.00;99.90;;;;;;5082100;28;20044;-65
2023/03/31 01:03:56;;;;;;;32.45;5.57;;;10.00;99.90;;;;;;5048017;28;20515;-65
2023/03/31 01:06:24;;;;;;;34.80;6.28;;;10.00;99.90;;;;;;5047982;28;20040;-65
2023/03/31 01:08:50;;;;;;;30.63;5.35;;;10.00;99.90;;;;;;5064583;28;20041;-66
2023/03/31 01:11:20;;;;;;;38.40;5.78;;;9.90;99.90;;;;;;5064856;28;20075;-66
2023/03/31 01:13:49;;;;;;;31.88;5.22;;;9.90;99.90;;;;;;5047920;28;20348;-65
2023/03/31 01:16:16;;;;;;;33.03;5.00;;;9.80;99.90;;;;;;5064555;28;20037;-65
2023/03/31 01:18:45;;;;;;;30.50;6.13;;;9.80;99.90;;;;;;5048269;28;20102;-65
2023/03/31 01:21:22;;;;;;;31.73;5.03;;;9.80;99.90;;;;;;5051070;28;20105;-65
2023/03/31 01:23:56;;;;;;;31.45;5.18;;;9.70;99.90;;;;;;5068372;28;20048;-64
2023/03/31 01:26:43;;;;;;;27.10;4.97;;;9.70;99.90;;;;;;5067958;28;20105;-64
2023/03/31 01:29:42;;;;;;;37.13;5.75;;;9.70;99.90;;;;;;5076246;28;20048;-64
2023/03/31 01:32:36;;;;;;;32.63;5.07;;;9.70;99.90;;;;;;5070811;28;20044;-65
2023/03/31 01:35:25;;;;;;;;;;;9.70;99.90;;;;;;5068073;28;20041;-65
2023/03/31 01:38:12;;;;;;;33.17;5.55;;;9.60;99.90;;;;;;5014265;28;20003;-65
2023/03/31 01:41:06;;;;;;;25.42;4.85;;;9.60;99.90;;;;;;5062585;28;20032;-65
2023/03/31 01:44:13;;;;;;;32.70;5.00;;;9.50;99.90;;;;;;5051954;28;20067;-64
2023/03/31 01:46:47;;;;;;;24.05;4.47;;;9.50;99.90;;;;;;4994101;28;20029;-65
2023/03/31 01:49:26;;;;;;;34.88;5.07;;;9.40;99.90;;;;;;5061727;28;20084;-66
2023/03/31 01:52:02;;;;;;;28.35;5.05;;;9.40;99.90;;;;;;5068281;28;20040;-66
2023/03/31 01:54:41;;;;;;;30.90;4.93;;;9.30;99.90;;;;;;5051536;28;20036;-66
2023/03/31 01:57:15;;;;;;;30.35;5.68;;;9.30;99.90;;;;;;5065559;28;20057;-63
2023/03/31 01:59:59;;;;;;;32.60;5.72;;;9.30;99.90;;;;;;5063297;28;20064;-66
2023/03/31 02:02:54;;;;;;;27.50;4.65;;;9.30;99.90;;;;;;5067075;28;20049;-65
2023/03/31 02:05:24;;;;;;;27.15;4.68;;;9.30;99.90;;;;;;5066742;28;20094;-65
2023/03/31 02:07:57;;;;;;;24.48;4.18;;;9.30;99.90;;;;;;5067952;28;20134;-65
2023/03/31 02:10:26;;;;;;;28.65;4.47;;;9.30;99.90;;;;;;5067137;28;20032;-65
2023/03/31 02:12:53;;;;;;;31.60;5.93;;;9.30;99.90;;;;;;5051262;28;20384;-64
2023/03/31 02:15:53;;;;;;;28.83;4.20;;;9.30;99.90;;;;;;5051651;28;20094;-65
2023/03/31 02:18:24;;;;;;;29.67;5.10;;;9.30;99.90;;;;;;5036808;28;20056;-66
2023/03/31 02:20:53;;;;;;;29.05;5.25;;;9.30;99.90;;;;;;5050861;28;20515;-66
2023/03/31 02:23:22;;;;;;;38.05;5.50;;;9.30;99.90;;;;;;5068079;28;20040;-66
2023/03/31 02:25:51;;;;;;;39.78;5.13;;;9.20;99.90;;;;;;5054103;28;20395;-66
2023/03/31 02:28:24;;;;;;;35.03;5.03;;;9.20;99.90;;;;;;5065530;28;20032;-66
2023/03/31 02:31:05;;;;;;;37.22;4.85;;;9.30;99.90;;;;;;5050668;28;20055;-66
2023/03/31 02:33:31;;;;;;;34.75;4.50;;;9.20;99.90;;;;;;5068645;28;20044;-66
2023/03/31 02:35:58;;;;;;;23.02;4.60;;;9.20;99.90;;;;;;5050900;28;20051;-67
2023/03/31 02:38:24;;;;;;;28.63;5.20;;;9.20;99.90;;;;;;5067747;28;20155;-66
2023/03/31 02:40:50;;;;;;;33.10;4.65;;;9.20;99.90;;;;;;5067195;28;20115;-65
2023/03/31 02:43:16;;;;;;;29.35;5.13;;;9.20;99.90;;;;;;5050603;28;20040;-66
2023/03/31 02:45:50;;;;;;;23.65;4.68;;;9.20;99.90;;;;;;5050877;28;20076;-66
2023/03/31 02:48:26;;;;;;;29.98;4.75;;;9.20;99.90;;;;;;5067501;28;20131;-68
2023/03/31 02:51:07;;;;;;;30.52;4.75;;;9.30;99.90;;;;;;5067460;28;20036;-66
2023/03/31 02:53:53;;;;;;;26.35;4.60;;;9.30;99.90;;;;;;5050615;28;20165;-66
2023/03/31 02:56:47;;;;;;;24.58;4.40;;;9.30;99.90;;;;;;5053716;28;20056;-66
2023/03/31 02:59:15;;;;;;;23.73;4.45;;;9.30;99.90;;;;;;5067387;28;20518;-65
2023/03/31 03:01:56;;;;;;;35.45;5.00;;;9.30;99.90;;;;;;5066853;28;20201;-65
2023/03/31 03:04:40;;;;;;;34.50;5.57;;;9.30;99.90;;;;;;5066835;28;20075;-66
2023/03/31 03:07:16;;;;;;;;;;;9.30;99.90;;;;;;5067103;28;20044;-66
2023/03/31 03:09:45;;;;;;;26.83;4.97;;;9.30;99.90;;;;;;5066217;28;20007;-67
2023/03/31 03:12:34;;;;;;;27.10;5.03;;;9.30;99.90;;;;;;5067151;28;20051;-66
2023/03/31 03:15:02;;;;;;;25.48;4.82;;;9.30;99.90;;;;;;5068566;28;20472;-67
2023/03/31 03:17:35;;;;;;;27.52;4.53;;;9.30;99.90;;;;;;5066031;28;20499;-67
2023/03/31 03:20:07;;;;;;;25.13;5.00;;;9.30;99.90;;;;;;5066867;28;20514;-68
2023/03/31 03:22:33;;;;;;;27.75;5.03;;;9.20;99.90;;;;;;5050252;28;20584;-67
2023/03/31 03:24:58;;;;;;;27.63;5.20;;;9.20;99.90;;;;;;5050394;28;20071;-68
2023/03/31 03:27:24;;;;;;;23.08;4.97;;;9.20;99.90;;;;;;5066121;28;20045;-67
2023/03/31 03:29:50;;;;;;;17.70;4.70;;;9.20;99.90;;;;;;5050684;28;20055;-69
2023/03/31 03:32:16;;;;;;;22.40;5.45;;;9.20;99.90;;;;;;5084151;28;20698;-67
2023/03/31 03:34:41;;;;;;;23.52;4.95;;;9.20;99.90;;;;;;5049573;28;20606;-67
2023/03/31 03:37:07;;;;;;;19.92;4.80;;;9.30;99.90;;;;;;5066166;28;20048;-66
2023/03/31 03:39:33;;;;;;;23.98;5.07;;;9.30;99.90;;;;;;5049919;28;20045;-67
2023/03/31 03:41:59;;;;;;;24.88;5.88;;;9.30;99.90;;;;;;5065304;28;20067;-66
2023/03/31 03:44:25;;;;;;;22.50;5.15;;;9.40;99.90;;;;;;5050218;28;20403;-68
2023/03/31 03:46:51;;;;;;;22.75;4.97;;;9.30;99.90;;;;;;5066609;28;20068;-67
2023/03/31 03:49:17;;;;;;;22.42;5.57;;;9.30;99.90;;;;;;5050108;28;20123;-68
2023/03/31 03:51:42;;;;;;;21.88;5.13;;;9.30;99.90;;;;;;5065644;28;20557;-67
2023/03/31 03:54:08;;;;;;;21.58;5.82;;;9.30;99.90;;;;;;5065590;28;20139;-68
2023/03/31 03:56:34;;;;;;;21.08;5.57;;;9.40;99.90;;;;;;5065250;28;20065;-66
2023/03/31 03:59:00;;;;;;;21.77;5.43;;;9.40;99.90;;;;;;5048526;28;20044;-70
2023/03/31 04:01:25;;;;;;;20.45;5.10;;;9.40;99.90;;;;;;5049472;28;20546;-66
2023/03/31 04:03:51;;;;;;;20.10;5.20;;;9.40;99.90;;;;;;5065870;28;20410;-67
2023/03/31 04:06:17;;;;;;;23.73;5.97;;;9.40;99.90;;;;;;5064688;28;20071;-67
2023/03/31 04:08:42;;;;;;;26.40;6.20;;;9.40;99.90;;;;;;5064472;28;20036;-65
2023/03/31 04:11:16;;;;;;;20.20;6.47;;;9.40;99.90;;;;;;5064204;28;20482;-65
2023/03/31 04:13:42;;;;;;;22.60;6.35;;;9.40;99.90;;;;;;5048034;28;20521;-64
2023/03/31 04:16:09;;;;;;;25.52;6.25;;;9.40;99.90;;;;;;5047700;28;20041;-65
2023/03/31 04:18:36;;;;;;;18.25;6.32;;;9.40;99.90;;;;;;5047653;28;20056;-64
2023/03/31 04:21:04;;;;;;;19.85;6.20;;;9.40;99.90;;;;;;5047261;28;20040;-67
2023/03/31 04:23:32;;;;;;;22.25;6.93;;;9.40;99.90;;;;;;5081404;28;20048;-66
2023/03/31 04:25:58;;;;;;;23.70;7.07;;;9.40;99.90;;;;;;5064214;28;20048;-64
2023/03/31 04:28:25;;;;;;;20.05;6.55;;;9.50;99.90;;;;;;5047866;28;20086;-66
2023/03/31 04:30:53;;;;;;;17.05;7.18;;;9.50;99.90;;;;;;5064166;28;20080;-64
2023/03/31 04:33:20;;;;;;;19.70;6.82;;;9.50;99.90;;;;;;5047478;28;20076;-65
2023/03/31 04:35:49;;;;;;;19.15;7.15;;;9.50;99.90;;;;;;5064048;28;20516;-65
2023/03/31 04:38:19;;;;;;;19.00;7.30;;;9.50;99.90;;;;;;5047343;28;20065;-64
2023/03/31 04:40:46;;;;;;;18.85;6.88;;;9.50;99.90;;;;;;5047361;28;20723;-66
2023/03/31 04:43:12;;;;;;;23.20;7.47;;;9.50;99.90;;;;;;5066140;28;20208;-66
2023/03/31 04:45:38;;;;;;;21.52;6.90;;;9.50;99.90;;;;;;5084240;28;20036;-65
2023/03/31 04:48:04;;;;;;;20.55;6.90;;;9.50;99.90;;;;;;5068880;28;20827;-65
2023/03/31 04:50:30;;;;;;;25.23;7.05;;;9.50;99.90;;;;;;5047150;28;20503;-65
2023/03/31 04:52:55;;;;;;;26.90;7.45;;;9.50;99.90;;;;;;5063800;28;20044;-65
2023/03/31 04:55:21;;;;;;;22.98;7.68;;;9.50;99.90;;;;;;5062790;28;20036;-64
2023/03/31 04:57:47;;;;;;;22.67;7.55;;;9.50;99.90;;;;;;5063233;28;20051;-61
2023/03/31 05:00:13;;;;;;;23.00;8.23;;;9.50;99.90;;;;;;5064018;28;20036;-64
2023/03/31 05:02:39;;;;;;;26.92;8.02;;;9.50;99.90;;;;;;5047350;28;20044;-64
2023/03/31 05:05:05;;;;;;;26.65;8.50;;;9.40;99.90;;;;;;5063532;28;20496;-63
2023/03/31 05:07:31;;;;;;;26.60;8.05;;;9.50;99.90;;;;;;5063662;28;20041;-64
2023/03/31 05:09:57;;;;;;;20.95;7.95;;;9.40;99.90;;;;;;5063508;28;20496;-64
2023/03/31 05:12:22;;;;;;;25.58;8.57;;;9.40;99.90;;;;;;5079867;28;20554;-65
2023/03/31 05:14:48;;;;;;;30.08;7.93;;;9.40;99.90;;;;;;5067334;28;20036;-64
2023/03/31 05:17:16;;;;;;;19.58;8.00;;;9.40;99.90;;;;;;5063935;28;20052;-64
2023/03/31 05:19:43;;;;;;;26.48;7.82;;;9.50;99.90;;;;;;5063405;28;20063;-63
2023/03/31 05:22:08;;;;;;;25.75;7.97;;;9.50;99.90;;;;;;5064892;28;20037;-65
2023/03/31 05:24:34;;;;;;;22.98;8.10;;;9.50;99.90;;;;;;5063712;28;20090;-65
2023/03/31 05:27:00;;;;;;;25.98;7.00;;;9.50;99.90;;;;;;5070708;28;20040;-66
2023/03/31 05:29:26;;;;;;;22.15;7.13;;;9.50;99.90;;;;;;5070406;28;20036;-66
2023/03/31 05:31:52;;;;;;;18.83;7.68;;;9.60;99.90;;;;;;5063668;28;20119;-66
2023/03/31 05:34:21;;;;;;;22.42;6.70;;;9.60;99.90;;;;;;5063747;28;20387;-66
2023/03/31 05:36:49;;;;;;;20.73;5.88;;;9.60;99.90;;;;;;5080213;28;20039;-66
2023/03/31 05:39:15;;;;;;;19.58;6.22;;;9.60;99.90;;;;;;5046575;28;20040;-67
2023/03/31 05:41:43;;;;;;;21.27;6.72;;;9.60;99.90;;;;;;5071490;28;20058;-66
2023/03/31 05:44:09;;;;;;;25.92;6.88;;;9.60;99.90;;;;;;5067179;28;20052;-66
2023/03/31 05:46:35;;;;;;;23.65;6.32;;;9.60;99.90;;;;;;5049918;28;20446;-66
2023/03/31 05:49:01;;;;;;;15.93;5.55;;;9.60;99.90;;;;;;5065443;28;20453;-65
2023/03/31 05:51:27;;;;;;;27.15;6.55;;;9.60;99.90;;;;;;5083278;28;20093;-67
2023/03/31 05:53:52;;;;;;;20.67;6.35;;;9.60;99.90;;;;;;5083809;28;20247;-66
2023/03/31 05:56:18;;;;;;;24.75;6.88;;;9.60;99.90;;;;;;5065260;28;20067;-65
2023/03/31 05:58:44;;;;;;;21.95;6.35;;;9.60;99.90;;;;;;5062269;28;20092;-66
2023/03/31 06:01:19;;;;;;;19.50;6.13;;;9.60;99.90;;;;;;5080417;28;20082;-65
2023/03/31 06:03:45;;;;;;;;;;;9.60;99.90;;;;;;5064701;28;20455;-65
2023/03/31 06:06:15;;;;;;;17.42;5.25;;;9.60;99.90;;;;;;5064496;28;20019;-66
2023/03/31 06:08:45;;;;;;;22.13;5.80;;;9.50;99.90;;;;;;5078257;28;20051;-66
2023/03/31 06:11:13;;;;;;;20.65;6.10;;;9.50;99.90;;;;;;5078949;28;20036;-65
2023/03/31 06:13:40;;;;;;;20.98;6.18;;;9.50;99.90;;;;;;5057843;28;20067;-65
2023/03/31 06:16:06;;;;;;;16.83;5.55;;;9.60;99.90;;;;;;5070115;28;20467;-65
2023/03/31 06:18:34;;;;;;;19.17;5.30;;;9.60;99.90;;;;;;5068064;28;20055;-66
2023/03/31 06:21:01;;;;;;;21.20;5.40;;;9.60;99.90;;;;;;5066476;28;20113;-67
2023/03/31 06:23:26;;;;;;;19.48;6.00;;;9.70;99.90;;;;;;5078011;28;20055;-66
2023/03/31 06:25:53;;;;;;;20.13;6.18;;;9.60;99.90;;;;;;5065050;28;20037;-68
2023/03/31 06:28:20;;;;;;;20.73;6.00;;;9.60;99.90;;;;;;5066252;28;20035;-66
2023/03/31 06:30:46;;;;;;;21.42;5.80;;;9.60;99.90;;;;;;5049858;28;20044;-67
2023/03/31 06:33:12;;;;;;;17.77;5.80;;;9.70;99.90;;;;;;5081043;28;20035;-67
2023/03/31 06:35:40;;;;;;;15.90;5.65;;;9.70;99.90;;;;;;5065626;28;20028;-65
2023/03/31 06:38:06;;;;;;;15.88;5.85;;;9.70;99.90;;;;;;5066289;28;20088;-67
2023/03/31 06:40:32;;;;;;;21.48;6.25;;;9.70;99.90;;;;;;5066899;28;20040;-66
2023/03/31 06:42:58;;;;;;;19.58;6.13;;;9.70;99.90;;;;;;5067607;28;20106;-67
2023/03/31 06:45:24;;;;;;;16.55;5.63;;;9.70;99.90;;;;;;5066538;28;20548;-67
2023/03/31 06:47:50;;;;;;;15.50;5.40;;;9.70;99.90;;;;;;5049544;28;20036;-67
2023/03/31 06:50:16;;;;;;;20.90;6.03;;;9.70;99.90;;;;;;5065875;28;20036;-67
2023/03/31 06:52:42;;;;;;;18.55;5.95;;;9.70;99.90;;;;;;5066226;28;20040;-67
2023/03/31 06:55:08;;;;;;;21.45;5.35;;;9.70;99.90;;;;;;5050140;28;20035;-66
2023/03/31 06:57:36;;;;;;;17.67;6.28;;;9.70;99.90;;;;;;5065613;28;20502;-65
2023/03/31 07:00:04;;;;;;;19.58;6.40;;;9.70;99.90;;;;;;5082512;28;20046;-66
2023/03/31 07:02:33;;;;;;;19.10;5.70;;;9.70;99.90;;;;;;5064543;28;20051;-66
2023/03/31 07:04:59;;;;;;;16.48;5.93;;;9.70;99.90;;;;;;5065450;28;20036;-66
2023/03/31 07:07:24;;;;;;;16.80;5.65;;;9.70;99.90;;;;;;5080843;28;20173;-66
2023/03/31 07:09:50;;;;;;;17.83;5.55;;;9.70;99.90;;;;;;5085661;28;20064;-66
2023/03/31 07:12:16;;;;;;;15.10;5.53;;;9.70;99.90;;;;;;5070428;28;20042;-67
2023/03/31 07:14:42;;;;;;;16.45;5.03;;;9.70;99.90;;;;;;5065718;28;20040;-66
2023/03/31 07:17:08;;;;;;;17.27;5.57;;;9.70;99.90;;;;;;5065702;28;20535;-65
2023/03/31 07:19:36;;;;;;;16.70;5.32;;;9.80;99.90;;;;;;5065732;28;20078;-66
2023/03/31 07:22:05;;;;;;;12.60;5.35;;;9.80;99.90;;;;;;5049073;28;20041;-65
2023/03/31 07:24:31;;;;;;;14.02;4.97;;;9.80;99.90;;;;;;5065449;28;20147;-67
2023/03/31 07:26:57;;;;;;;18.00;5.90;;;9.80;99.90;;;;;;5048123;28;20045;-66
2023/03/31 07:29:23;;;;;;;20.35;5.78;;;9.80;99.90;;;;;;5065534;28;20124;-67
2023/03/31 07:31:49;;;;;;;21.23;6.30;;;9.90;99.90;;;;;;5050856;28;20043;-67
2023/03/31 07:34:17;;;;;;;18.15;6.25;;;9.80;99.90;;;;;;5068745;28;20048;-68
2023/03/31 07:36:43;;;;;;;18.73;5.38;;;9.90;99.90;;;;;;5053709;28;20604;-67
2023/03/31 07:39:09;;;;;;;19.02;6.20;;;9.90;99.90;;;;;;5065069;28;20408;-65
2023/03/31 07:41:35;;;;;;;19.20;6.15;;;9.90;99.90;;;;;;5064503;28;20044;-66
2023/03/31 07:44:01;;;;;;;16.20;5.65;;;9.90;99.90;;;;;;5048666;28;20093;-67
2023/03/31 07:46:27;;;;;;;14.43;5.50;;;9.90;99.90;;;;;;5048473;28;20056;-65
2023/03/31 07:48:54;;;;;;;27.90;5.57;;;9.90;99.90;;;;;;5065083;28;20075;-66
2023/03/31 07:51:24;;;;;;;16.40;5.45;;;9.90;99.90;;;;;;5063828;28;20576;-66
2023/03/31 07:53:51;;;;;;;18.67;5.90;;;9.80;99.90;;;;;;5064815;28;20040;-65
2023/03/31 07:56:21;;;;;;;13.85;3.90;;;9.80;99.90;;;;;;5047753;28;20127;-65
2023/03/31 07:58:48;;;;;;;10.35;3.35;;;9.80;99.90;;;;;;5064823;28;20056;-65
2023/03/31 08:01:15;;;;;;;14.70;4.00;;;9.80;99.90;;;;;;5064668;28;20509;-65
2023/03/31 08:03:43;;;;;;;12.40;4.35;;;9.70;99.90;;;;;;5064773;28;20048;-65
2023/03/31 08:06:08;;;;;;;14.90;4.30;;;9.70;99.90;;;;;;5064334;28;20040;-65
2023/03/31 08:08:37;;;;;;;11.93;5.13;;;9.80;99.90;;;;;;5064794;28;20129;-65
2023/03/31 08:11:03;;;;;;;18.98;5.57;;;9.70;99.90;;;;;;5080934;28;20032;-65
2023/03/31 08:13:29;;;;;;;18.33;5.53;;;9.80;99.90;;;;;;5065841;28;20210;-65
2023/03/31 08:15:55;;;;;;;17.30;5.88;;;9.80;99.90;;;;;;5064412;28;20092;-65
2023/03/31 08:18:21;;;;;;;14.45;5.75;;;9.80;99.90;;;;;;5064981;28;20428;-64
2023/03/31 08:20:52;;;;;;;15.95;5.95;;;9.80;99.90;;;;;;5048224;28;20041;-66
2023/03/31 08:23:21;;;;;;;14.32;5.57;;;9.80;99.90;;;;;;5065988;28;20040;-66
2023/03/31 08:25:47;;;;;;;14.63;4.85;;;9.80;99.90;;;;;;5065764;28;20033;-65
2023/03/31 08:28:13;;;;;;;18.30;5.57;;;9.90;99.90;;;;;;5064774;28;20035;-65
2023/03/31 08:30:40;;;;;;;15.50;5.07;;;9.80;99.90;;;;;;5047671;28;20051;-64
2023/03/31 08:33:07;;;;;;;12.70;4.15;;;9.90;99.90;;;;;;5053369;28;20068;-63
2023/03/31 08:35:36;;;;;;;14.20;4.50;;;9.90;99.90;;;;;;5064198;28;20128;-65
2023/03/31 08:38:02;;;;;;;15.50;4.47;;;10.00;99.90;;;;;;5064043;28;20123;-64
2023/03/31 08:40:29;;;;;;;16.27;5.50;;;10.00;99.90;;;;;;5063754;28;20048;-63
2023/03/31 08:43:03;;;;;;;18.85;4.57;;;10.10;99.90;;;;;;5080793;28;20511;-64
2023/03/31 08:45:33;;;;;;;;;;;10.20;99.90;;;;;;5067587;28;20044;-65
2023/03/31 08:48:18;;;;;;;14.48;4.47;;;10.20;99.90;;;;;;5053759;28;19927;-65
2023/03/31 08:50:46;;;;;;;;;;;10.20;99.90;;;;;;5063933;28;20036;-64
2023/03/31 08:53:22;;;;;;;15.18;4.15;;;10.30;99.90;;;;;;5047534;28;19921;-65
2023/03/31 08:55:53;;;;;;;17.45;4.90;;;10.30;99.90;;;;;;5053724;28;20445;-65
2023/03/31 08:58:50;;;;;;;14.98;4.97;;;10.40;99.90;;;;;;5081579;28;20060;-65
2023/03/31 09:01:41;;;;;;;14.88;4.03;;;10.40;99.90;;;;;;5074849;28;20078;-65
2023/03/31 09:04:28;;;;;;;17.92;4.35;;;10.40;99.90;;;;;;5064155;28;20048;-65
2023/03/31 09:07:01;;;;;;;16.65;4.15;;;10.40;99.90;;;;;;5063783;28;20508;-65
2023/03/31 09:09:42;;;;;;;13.77;4.25;;;10.40;99.90;;;;;;5054379;28;20251;-65
2023/03/31 09:12:34;;;;;;;20.40;4.22;;;10.50;99.90;;;;;;5046796;28;20051;-65
2023/03/31 09:15:04;;;;;;;14.30;4.03;;;10.50;99.90;;;;;;5047794;28;20546;-65
2023/03/31 09:17:42;;;;;;;12.55;4.15;;;10.50;99.90;;;;;;5064181;28;20095;-65
2023/03/31 09:20:33;;;;;;;14.50;4.55;;;10.50;99.90;;;;;;5063510;28;20047;-64
2023/03/31 09:23:23;;;;;;;14.77;4.05;;;10.50;99.90;;;;;;5064402;28;20082;-64
2023/03/31 09:25:50;;;;;;;19.52;4.90;;;10.50;99.90;;;;;;5063465;28;20044;-65
2023/03/31 09:28:33;;;;;;;16.67;4.70;;;10.50;99.90;;;;;;5046834;28;20278;-64
2023/03/31 09:31:03;;;;;;;11.02;3.67;;;10.50;99.90;;;;;;5063706;28;20044;-64
2023/03/31 09:33:30;;;;;;;15.90;4.35;;;10.50;99.90;;;;;;5047197;28;20213;-65
2023/03/31 09:36:00;;;;;;;15.00;4.22;;;10.60;99.90;;;;;;5063396;28;20116;-65
2023/03/31 09:38:28;;;;;;;15.27;4.50;;;10.60;99.90;;;;;;5063474;28;20044;-66
2023/03/31 09:40:59;;;;;;;12.15;4.20;;;10.60;99.90;;;;;;5064861;28;20087;-64
2023/03/31 09:43:33;;;;;;;11.38;3.85;;;10.70;99.90;;;;;;5051460;28;20048;-64
2023/03/31 09:46:00;;;;;;;14.48;4.80;;;10.70;99.90;;;;;;5067486;28;20044;-65
2023/03/31 09:48:31;;;;;;;15.85;4.30;;;10.80;99.90;;;;;;5050572;28;20040;-65
2023/03/31 09:51:15;;;;;;;13.60;4.32;;;10.80;99.90;;;;;;5066970;28;20432;-65
2023/03/31 09:54:14;;;;;;;11.63;4.03;;;10.90;99.90;;;;;;5050252;28;20047;-65
2023/03/31 09:56:42;;;;;;;15.27;3.78;;;10.90;99.90;;;;;;5047072;28;20641;-65
2023/03/31 09:59:28;;;;;;;13.10;4.22;;;10.90;99.90;;;;;;5050416;28;20044;-64
2023/03/31 10:01:58;;;;;;;15.13;4.28;;;10.90;99.90;;;;;;5067512;28;20399;-64
2023/03/31 10:04:27;;;;;;;13.38;4.40;;;11.00;99.90;;;;;;5066941;28;20040;-66
2023/03/31 10:06:54;;;;;;;14.35;4.10;;;11.10;99.90;;;;;;5049837;28;20097;-65
2023/03/31 10:09:25;;;;;;;12.50;3.78;;;11.20;99.90;;;;;;5071052;28;20040;-65
2023/03/31 10:12:01;;;;;;;12.65;3.78;;;11.30;99.90;;;;;;5058641;28;20158;-65
2023/03/31 10:14:48;;;;;;;12.18;4.18;;;11.40;99.90;;;;;;5066487;28;20040;-65
2023/03/31 10:17:20;;;;;;;14.65;3.85;;;11.40;99.90;;;;;;5049851;28;20048;-65
2023/03/31 10:19:56;;;;;;;13.30;3.95;;;11.40;99.90;;;;;;5066402;28;20048;-65
2023/03/31 10:22:21;;;;;;;11.52;3.92;;;11.40;99.90;;;;;;5068003;28;20098;-65
2023/03/31 10:24:50;;;;;;;10.18;3.53;;;11.40;99.90;;;;;;5066319;28;20045;-66
2023/03/31 10:27:25;;;;;;;11.10;3.22;;;11.50;99.90;;;;;;5066409;28;20036;-65
2023/03/31 10:29:53;;;;;;;12.38;3.60;;;11.50;99.90;;;;;;5049840;28;20431;-65
2023/03/31 10:32:28;;;;;;;13.02;3.75;;;11.60;99.90;;;;;;5066763;28;20060;-64
2023/03/31 10:35:06;;;;;;;12.63;3.40;;;11.70;99.90;;;;;;5049462;28;20076;-64
2023/03/31 10:37:35;;;;;;;9.60;3.42;;;11.90;99.90;;;;;;5066893;28;20087;-66
2023/03/31 10:40:14;;;;;;;7.85;2.50;;;12.00;99.90;;;;;;5049448;28;20094;-63
2023/03/31 10:42:43;;;;;;;6.35;2.17;;;12.00;99.90;;;;;;5050236;28;20110;-64
2023/03/31 10:45:22;;;;;;;6.65;2.10;;;11.90;99.90;;;;;;5066271;28;20075;-63
2023/03/31 10:47:51;;;;;;;11.98;2.45;;;11.70;99.90;;;;;;5066296;28;20037;-65
2023/03/31 10:50:17;;;;;;;9.02;2.50;;;11.70;99.90;;;;;;5067105;28;20028;-65
2023/03/31 10:52:46;;;;;;;8.52;2.80;;;11.70;99.90;;;;;;5065739;28;20067;-67
2023/03/31 10:55:25;;;;;;;8.88;2.38;;;11.60;99.90;;;;;;5072757;28;20036;-65
2023/03/31 10:58:27;;;;;;;7.90;2.25;;;11.70;99.90;;;;;;5050022;28;20424;-65
2023/03/31 11:01:27;;;;;;;8.40;2.42;;;11.80;99.90;;;;;;5049117;28;20095;-63
2023/03/31 11:04:02;;;;;;;10.95;2.83;;;11.90;99.90;;;;;;5049531;28;20089;-66
2023/03/31 11:06:28;;;;;;;9.63;2.80;;;12.20;99.90;;;;;;5065677;28;20047;-66
2023/03/31 11:09:12;;;;;;;9.45;2.63;;;12.40;99.90;;;;;;5073756;28;20228;-66
2023/03/31 11:11:58;;;;;;;8.70;2.65;;;12.70;99.90;;;;;;5076002;28;20452;-64
2023/03/31 11:14:36;;;;;;;9.68;2.63;;;12.90;99.90;;;;;;5058419;28;20433;-65
2023/03/31 11:17:26;;;;;;;8.95;2.72;;;13.10;99.90;;;;;;5081656;28;20045;-65
2023/03/31 11:20:26;;;;;;;10.07;2.05;;;13.30;99.90;;;;;;5065165;28;20048;-66
2023/03/31 11:23:01;;;;;;;11.35;2.63;;;13.50;99.90;;;;;;5065726;28;20052;-65
2023/03/31 11:26:16;;;;;;;7.85;2.45;;;13.60;99.90;;;;;;5048492;28;20047;-65
2023/03/31 11:28:48;;;;;;;9.45;2.30;;;13.80;99.90;;;;;;5048623;28;20052;-63
2023/03/31 11:31:31;;;;;;;8.10;2.20;;;13.90;99.90;;;;;;5067016;28;20283;-64
2023/03/31 11:34:23;;;;;;;8.40;2.35;;;13.80;99.90;;;;;;5065804;28;20044;-64
2023/03/31 11:36:58;;;;;;;9.05;2.58;;;13.90;99.90;;;;;;5062235;28;20059;-64
2023/03/31 11:39:45;;;;;;;7.53;2.10;;;14.10;99.90;;;;;;5048977;28;20403;-63
2023/03/31 11:42:20;;;;;;;10.73;2.50;;;14.40;99.90;;;;;;5061614;28;20255;-64
2023/03/31 11:44:51;;;;;;;10.75;2.53;;;14.40;99.90;;;;;;5054531;28;20041;-65
2023/03/31 11:47:29;;;;;;;9.38;2.25;;;14.40;99.90;;;;;;5070431;28;20040;-64
2023/03/31 11:50:02;;;;;;;9.77;2.50;;;14.30;99.90;;;;;;5085279;28;20506;-64
2023/03/31 11:52:40;;;;;;;9.57;2.45;;;14.00;99.90;;;;;;5063876;28;20052;-66
2023/03/31 11:55:17;;;;;;;9.55;2.33;;;13.70;99.90;;;;;;5049812;28;20032;-64
2023/03/31 11:58:07;;;;;;;7.35;2.00;;;13.30;99.90;;;;;;5064560;28;20062;-63
2023/03/31 12:01:03;;;;;;;8.25;2.35;;;13.10;99.90;;;;;;5064576;28;20052;-64
2023/03/31 12:03:37;;;;;;;8.23;2.65;;;13.20;99.90;;;;;;5047610;28;20508;-65
2023/03/31 12:06:18;;;;;;;8.63;2.08;;;13.80;99.90;;;;;;5064348;28;20048;-65
2023/03/31 12:08:46;;;;;;;7.57;2.08;;;14.50;99.90;;;;;;5048254;28;20124;-66
2023/03/31 12:11:35;;;;;;;9.95;2.25;;;15.00;99.90;;;;;;5064344;28;20090;-66
2023/03/31 12:14:28;;;;;;;10.45;2.50;;;15.10;99.90;;;;;;5047926;28;20032;-66
2023/03/31 12:17:07;;;;;;;7.60;2.05;;;14.80;99.90;;;;;;5064602;28;20055;-65
2023/03/31 12:19:39;;;;;;;7.78;1.80;;;14.50;99.90;;;;;;5048214;28;20411;-64
2023/03/31 12:22:18;;;;;;;9.32;2.00;;;14.40;99.90;;;;;;5047519;28;20048;-64
2023/03/31 12:24:45;;;;;;;10.75;2.42;;;14.30;99.90;;;;;;5064432;28;20055;-66
2023/03/31 12:27:26;;;;;;;7.72;2.58;;;14.20;99.90;;;;;;5060412;28;20047;-65
2023/03/31 12:30:14;;;;;;;8.38;2.20;;;14.10;99.90;;;;;;5070003;28;20048;-64
2023/03/31 12:32:54;;;;;;;7.70;2.15;;;14.10;99.90;;;;;;5047521;28;20044;-64
2023/03/31 12:35:35;;;;;;;10.00;2.30;;;14.00;99.90;;;;;;5047747;28;20487;-63
2023/03/31 12:38:01;;;;;;;9.27;2.50;;;13.90;99.90;;;;;;5067873;28;20442;-65
2023/03/31 12:40:37;;;;;;;9.90;2.72;;;13.80;99.90;;;;;;5066423;28;20079;-63
2023/03/31 12:43:40;;;;;;;9.38;2.85;;;13.70;99.90;;;;;;5047487;28;20056;-63
2023/03/31 12:46:17;;;;;;;13.73;2.75;;;13.60;99.90;;;;;;5047647;28;20143;-64
2023/03/31 12:49:08;;;;;;;12.23;2.83;;;13.60;99.90;;;;;;5063441;28;20302;-63
2023/03/31 12:51:40;;;;;;;13.57;3.58;;;13.50;99.90;;;;;;5067031;28;20043;-67
2023/03/31 12:54:36;;;;;;;8.77;2.60;;;13.50;99.90;;;;;;5063380;28;20032;-67
2023/03/31 12:57:08;;;;;;;10.20;3.55;;;13.50;99.90;;;;;;5046760;28;20053;-65
2023/03/31 12:59:36;;;;;;;14.50;3.53;;;13.60;99.90;;;;;;5057873;28;20442;-66
2023/03/31 13:02:08;;;;;;;11.82;3.22;;;13.70;99.90;;;;;;5078160;28;20040;-66
2023/03/31 13:04:38;;;;;;;17.35;3.47;;;13.90;99.90;;;;;;5051257;28;20039;-66
2023/03/31 13:07:26;;;;;;;10.48;2.80;;;14.20;99.90;;;;;;5083998;28;20043;-66
2023/03/31 13:10:26;;;;;;;14.52;2.97;;;14.40;99.90;;;;;;5066258;28;20040;-65
2023/03/31 13:13:01;;;;;;;12.60;3.30;;;14.30;99.90;;;;;;5051599;28;20051;-67